createdAt,value
2022-09-03T00:01:55.200Z,100866.66
2022-09-03T00:04:32.928Z,100871.16
2022-09-03T00:07:08.955Z,100863.41
2022-09-03T00:09:43.907Z,100858.88
2022-09-03T00:12:19.712Z,100864.41
2022-09-03T00:15:01.891Z,100863.66
2022-09-03T00:17:41.084Z,100864.66
2022-09-03T00:20:11.918Z,100861.09
2022-09-03T00:22:58.658Z,100855.03
2022-09-03T00:25:43.028Z,100858.41
2022-09-03T00:28:19.365Z,100854.00
2022-09-03T00:30:53.986Z,100852.38
2022-09-03T00:33:28.584Z,100855.94
2022-09-03T00:36:02.103Z,100850.44
2022-09-03T00:38:30.662Z,100855.03
2022-09-03T00:41:03.893Z,100853.25
2022-09-03T00:43:52.845Z,100854.16
2022-09-03T00:46:27.633Z,100856.84
2022-09-03T00:49:16.788Z,100846.22
2022-09-03T00:51:56.237Z,100857.75
2022-09-03T00:54:40.523Z,100864.19
2022-09-03T00:57:44.339Z,100861.50
2022-09-03T01:00:22.792Z,100858.94
2022-09-03T01:03:08.066Z,100855.34
2022-09-03T01:05:38.513Z,100853.59
2022-09-03T01:08:33.895Z,100854.59
2022-09-03T01:11:04.298Z,100847.50
2022-09-03T01:13:43.798Z,100861.00
2022-09-03T01:16:47.058Z,100852.16
2022-09-03T01:19:35.655Z,100858.31
2022-09-03T01:22:28.924Z,100862.00
2022-09-03T01:25:18.302Z,100865.56
2022-09-03T01:28:02.036Z,100863.84
2022-09-03T01:30:38.260Z,100864.75
2022-09-03T01:33:14.451Z,100864.78
2022-09-03T01:35:47.279Z,100862.97
2022-09-03T01:38:47.059Z,100852.47
2022-09-03T01:42:20.454Z,100858.56
2022-09-03T01:45:30.877Z,100865.75
2022-09-03T01:48:33.017Z,100867.53
2022-09-03T01:51:21.643Z,100862.41
2022-09-03T01:54:23.692Z,100864.25
2022-09-03T01:57:35.200Z,100861.59
2022-09-03T02:00:13.904Z,100862.56
2022-09-03T02:02:46.507Z,100862.63
2022-09-03T02:05:32.165Z,100861.75
2022-09-03T02:08:07.261Z,100854.72
2022-09-03T02:10:52.405Z,100851.22
2022-09-03T02:13:28.439Z,100855.69
2022-09-03T02:16:03.185Z,100855.66
2022-09-03T02:18:38.875Z,100857.53
2022-09-03T02:21:07.185Z,100851.28
2022-09-03T02:23:34.628Z,100852.22
2022-09-03T02:26:03.740Z,100847.72
2022-09-03T02:28:32.771Z,100852.25
2022-09-03T02:31:00.093Z,100851.34
2022-09-03T02:33:28.301Z,100854.06
2022-09-03T02:35:55.880Z,100853.25
2022-09-03T02:38:26.416Z,100855.94
2022-09-03T02:40:54.527Z,100849.78
2022-09-03T02:43:42.016Z,100840.06
2022-09-03T02:46:17.155Z,100853.41
2022-09-03T02:48:45.301Z,100843.66
2022-09-03T02:51:13.841Z,100851.59
2022-09-03T02:53:42.922Z,100849.88
2022-09-03T02:56:10.332Z,100847.16
2022-09-03T02:58:37.739Z,100856.91
2022-09-03T03:01:05.702Z,100846.38
2022-09-03T03:03:33.144Z,100849.03
2022-09-03T03:06:04.631Z,100858.84
2022-09-03T03:08:34.785Z,100849.13
2022-09-03T03:11:02.252Z,100849.16
2022-09-03T03:13:31.542Z,100855.44
2022-09-03T03:16:06.391Z,100848.34
2022-09-03T03:18:34.383Z,100845.72
2022-09-03T03:21:10.855Z,100849.25
2022-09-03T03:23:39.678Z,100846.59
2022-09-03T03:26:13.259Z,100851.94
2022-09-03T03:28:42.388Z,100845.72
2022-09-03T03:31:23.561Z,100848.44
2022-09-03T03:34:00.463Z,100856.38
2022-09-03T03:36:31.724Z,100842.31
2022-09-03T03:39:01.006Z,100855.53
2022-09-03T03:41:34.415Z,100844.81
2022-09-03T03:44:06.477Z,100852.88
2022-09-03T03:46:40.224Z,100843.19
2022-09-03T03:49:09.788Z,100849.41
2022-09-03T03:51:38.369Z,100858.28
2022-09-03T03:54:06.378Z,100853.00
2022-09-03T03:56:36.864Z,100847.72
2022-09-03T03:59:04.440Z,100847.72
2022-09-03T04:01:34.482Z,100848.66
2022-09-03T04:04:01.654Z,100855.75
2022-09-03T04:06:29.701Z,100843.31
2022-09-03T04:08:56.885Z,100849.50
2022-09-03T04:11:25.431Z,100844.16
2022-09-03T04:13:52.954Z,100841.53
2022-09-03T04:16:28.171Z,100838.81
2022-09-03T04:19:00.953Z,100841.47
2022-09-03T04:21:30.100Z,100843.28
2022-09-03T04:23:58.484Z,100837.03
2022-09-03T04:26:31.572Z,100842.34
2022-09-03T04:29:05.677Z,100847.59
2022-09-03T04:31:34.915Z,100842.31
2022-09-03T04:34:02.141Z,100852.91
2022-09-03T04:36:31.053Z,100847.66
2022-09-03T04:39:01.737Z,100848.47
2022-09-03T04:41:31.579Z,100844.06
2022-09-03T04:44:00.470Z,100850.25
2022-09-03T04:46:33.503Z,100841.41
2022-09-03T04:49:02.393Z,100854.66
2022-09-03T04:51:31.291Z,100847.56
2022-09-03T04:54:01.304Z,100847.56
2022-09-03T04:56:35.490Z,100848.38
2022-09-03T04:59:07.548Z,100849.25
2022-09-03T05:01:37.837Z,100853.66
2022-09-03T05:04:06.517Z,100851.88
2022-09-03T05:06:35.103Z,100857.22
2022-09-03T05:09:03.075Z,100857.19
2022-09-03T05:11:30.737Z,100850.13
2022-09-03T05:14:00.406Z,100849.25
2022-09-03T05:16:30.129Z,100850.97
2022-09-03T05:18:59.938Z,100857.19
2022-09-03T05:21:28.656Z,100852.78
2022-09-03T05:23:55.834Z,100851.84
2022-09-03T05:26:27.366Z,100857.13
2022-09-03T05:29:02.903Z,100853.63
2022-09-03T05:31:32.139Z,100858.91
2022-09-03T05:34:02.779Z,100857.13
2022-09-03T05:36:34.754Z,100860.69
2022-09-03T05:39:02.164Z,100858.94
2022-09-03T05:41:30.061Z,100862.38
2022-09-03T05:43:59.175Z,100857.06
2022-09-03T05:46:32.793Z,100856.22
2022-09-03T05:49:06.397Z,100853.50
2022-09-03T05:51:36.613Z,100861.53
2022-09-03T05:54:03.999Z,100853.50
2022-09-03T05:56:33.536Z,100858.78
2022-09-03T05:59:05.574Z,100853.44
2022-09-03T06:01:51.647Z,100849.88
2022-09-03T06:04:20.372Z,100859.56
2022-09-03T06:06:49.049Z,100855.13
2022-09-03T06:09:19.851Z,100856.00
2022-09-03T06:11:50.138Z,100857.72
2022-09-03T06:14:17.721Z,100858.59
2022-09-03T06:16:52.838Z,100861.19
2022-09-03T06:19:20.418Z,100862.03
2022-09-03T06:21:48.268Z,100869.06
2022-09-03T06:24:26.401Z,100868.97
2022-09-03T06:26:56.661Z,100880.50
2022-09-03T06:29:23.687Z,100884.81
2022-09-03T06:31:51.321Z,100883.91
2022-09-03T06:34:18.805Z,100868.66
2022-09-03T06:36:46.609Z,100876.63
2022-09-03T06:39:13.616Z,100877.34
2022-09-03T06:41:40.691Z,100875.41
2022-09-03T06:44:11.931Z,100879.81
2022-09-03T06:46:42.819Z,100880.56
2022-09-03T06:49:11.871Z,100878.63
2022-09-03T06:51:39.664Z,100876.75
2022-09-03T06:54:09.420Z,100881.88
2022-09-03T06:56:40.745Z,100881.84
2022-09-03T06:59:14.270Z,100888.75
2022-09-03T07:01:45.418Z,100884.88
2022-09-03T07:04:16.907Z,100874.91
2022-09-03T07:06:47.409Z,100874.56
2022-09-03T07:09:15.883Z,100881.47
2022-09-03T07:11:47.999Z,100885.72
2022-09-03T07:14:18.447Z,100881.94
2022-09-03T07:16:46.312Z,100882.66
2022-09-03T07:19:13.765Z,100888.06
2022-09-03T07:21:46.505Z,100878.03
2022-09-03T07:24:16.693Z,100882.41
2022-09-03T07:26:46.492Z,100880.47
2022-09-03T07:29:15.924Z,100871.34
2022-09-03T07:31:44.014Z,100883.50
2022-09-03T07:34:13.944Z,100879.75
2022-09-03T07:36:48.894Z,100884.00
2022-09-03T07:39:18.644Z,100887.16
2022-09-03T07:41:46.992Z,100892.28
2022-09-03T07:44:19.320Z,100892.06
2022-09-03T07:46:47.871Z,100887.91
2022-09-03T07:49:15.212Z,100887.75
2022-09-03T07:51:42.344Z,100890.63
2022-09-03T07:54:11.730Z,100892.28
2022-09-03T07:56:40.694Z,100900.31
2022-09-03T07:59:09.055Z,100895.75
2022-09-03T08:01:38.389Z,100906.31
2022-09-03T08:04:09.534Z,100908.72
2022-09-03T08:06:38.525Z,100903.19
2022-09-03T08:09:09.737Z,100906.44
2022-09-03T08:11:39.028Z,100905.47
2022-09-03T08:14:09.701Z,100912.47
2022-09-03T08:16:42.916Z,100914.00
2022-09-03T08:19:12.056Z,100921.88
2022-09-03T08:21:41.827Z,100923.28
2022-09-03T08:24:11.114Z,100921.16
2022-09-03T08:26:50.677Z,100910.97
2022-09-03T08:29:19.279Z,100911.59
2022-09-03T08:31:46.527Z,100928.16
2022-09-03T08:34:14.805Z,100923.22
2022-09-03T08:36:42.226Z,100919.16
2022-09-03T08:39:11.323Z,100918.94
2022-09-03T08:41:53.632Z,100917.72
2022-09-03T08:44:40.282Z,100913.81
2022-09-03T08:47:44.112Z,100908.81
2022-09-03T08:50:29.426Z,100910.38
2022-09-03T08:53:19.663Z,100906.34
2022-09-03T08:55:55.018Z,100916.66
2022-09-03T08:58:27.481Z,100912.72
2022-09-03T09:01:34.308Z,100910.53
2022-09-03T09:04:07.478Z,100913.69
2022-09-03T09:06:52.049Z,100920.19
2022-09-03T09:10:00.529Z,100909.06
2022-09-03T09:12:46.968Z,100917.28
2022-09-03T09:15:30.410Z,100921.91
2022-09-03T09:18:11.539Z,100911.75
2022-09-03T09:20:57.944Z,100919.50
2022-09-03T09:23:57.847Z,100918.53
2022-09-03T09:26:28.646Z,100910.44
2022-09-03T09:29:10.165Z,100911.97
2022-09-03T09:31:45.973Z,100906.59
2022-09-03T09:34:15.390Z,100901.66
2022-09-03T09:36:54.451Z,100894.78
2022-09-03T09:39:32.127Z,100898.34
2022-09-03T09:42:12.967Z,100904.47
2022-09-03T09:44:44.878Z,100898.94
2022-09-03T09:47:31.084Z,100900.19
2022-09-03T09:50:02.466Z,100907.78
2022-09-03T09:52:31.818Z,100911.22
2022-09-03T09:55:19.444Z,100907.13
2022-09-03T09:58:04.453Z,100917.53
2022-09-03T10:00:37.545Z,100907.84
2022-09-03T10:03:13.801Z,100908.91
2022-09-03T10:05:58.479Z,100911.25
2022-09-03T10:08:31.103Z,100911.47
2022-09-03T10:11:05.282Z,100903.09
2022-09-03T10:13:45.979Z,100905.41
2022-09-03T10:16:30.370Z,100902.28
2022-09-03T10:19:17.187Z,100908.34
2022-09-03T10:22:19.817Z,100895.72
2022-09-03T10:24:59.557Z,100898.97
2022-09-03T10:27:30.163Z,100889.06
2022-09-03T10:30:09.010Z,100898.38
2022-09-03T10:33:19.147Z,100893.78
2022-09-03T10:36:04.001Z,100887.66
2022-09-03T10:38:41.219Z,100881.69
2022-09-03T10:41:32.801Z,100881.69
2022-09-03T10:44:35.419Z,100881.56
2022-09-03T10:48:04.963Z,100886.56
2022-09-03T10:51:04.296Z,100883.31
2022-09-03T10:53:55.302Z,100883.59
2022-09-03T10:56:51.017Z,100883.78
2022-09-03T10:59:35.981Z,100898.09
2022-09-03T11:02:33.416Z,100883.97
2022-09-03T11:05:22.840Z,100888.88
2022-09-03T11:07:59.207Z,100889.38
2022-09-03T11:10:42.093Z,100887.63
2022-09-03T11:13:20.441Z,100881.34
2022-09-03T11:16:04.662Z,100876.47
2022-09-03T11:18:40.684Z,100867.84
2022-09-03T11:21:13.701Z,100884.72
2022-09-03T11:24:13.835Z,100878.84
2022-09-03T11:26:48.443Z,100881.59
2022-09-03T11:29:25.309Z,100878.47
2022-09-03T11:32:10.992Z,100877.03
2022-09-03T11:34:54.799Z,100881.16
2022-09-03T11:37:23.945Z,100875.47
2022-09-03T11:40:11.835Z,100872.91
2022-09-03T11:42:45.126Z,100870.44
2022-09-03T11:45:30.168Z,100872.19
2022-09-03T11:47:59.297Z,100866.19
2022-09-03T11:50:33.700Z,100858.72
2022-09-03T11:53:19.792Z,100856.31
2022-09-03T11:56:14.506Z,100857.19
2022-09-03T11:58:43.527Z,100857.09
2022-09-03T12:01:18.802Z,100854.06
2022-09-03T12:03:58.452Z,100856.19
2022-09-03T12:06:56.958Z,100864.28
2022-09-03T12:09:42.900Z,100859.59
2022-09-03T12:12:29.611Z,100854.81
2022-09-03T12:15:35.774Z,100850.13
2022-09-03T12:18:19.519Z,100851.25
2022-09-03T12:21:06.755Z,100860.25
2022-09-03T12:23:42.242Z,100863.16
2022-09-03T12:26:19.992Z,100858.75
2022-09-03T12:28:56.218Z,100850.06
2022-09-03T12:31:31.470Z,100852.88
2022-09-03T12:34:10.863Z,100852.97
2022-09-03T12:36:42.027Z,100841.53
2022-09-03T12:39:17.895Z,100844.34
2022-09-03T12:42:06.544Z,100852.69
2022-09-03T12:44:42.239Z,100840.41
2022-09-03T12:50:13.763Z,100849.38
2022-09-03T12:53:01.808Z,100844.50
2022-09-03T12:55:45.331Z,100846.09
2022-09-03T12:58:28.385Z,100853.25
2022-09-03T13:01:17.048Z,100850.81
2022-09-03T13:03:50.063Z,100854.69
2022-09-03T13:06:23.135Z,100851.63
2022-09-03T13:08:54.995Z,100848.59
2022-09-03T13:11:24.640Z,100842.50
2022-09-03T13:13:55.365Z,100842.72
2022-09-03T13:16:45.238Z,100842.97
2022-09-03T13:19:37.710Z,100850.91
2022-09-03T13:22:43.496Z,100842.41
2022-09-03T13:25:16.375Z,100839.13
2022-09-03T13:28:07.282Z,100848.41
2022-09-03T13:31:29.003Z,100854.69
2022-09-03T13:34:09.629Z,100846.75
2022-09-03T13:36:56.135Z,100835.31
2022-09-03T13:39:52.574Z,100842.56
2022-09-03T13:42:41.852Z,100846.06
2022-09-03T13:45:27.431Z,100836.78
2022-09-03T13:48:21.276Z,100837.91
2022-09-03T13:51:14.684Z,100841.25
2022-09-03T13:54:11.607Z,100842.00
2022-09-03T13:57:01.140Z,100839.53
2022-09-03T13:59:52.719Z,100839.53
2022-09-03T14:02:36.891Z,100837.50
2022-09-03T14:05:11.884Z,100849.56
2022-09-03T14:07:45.392Z,100852.31
2022-09-03T14:10:21.952Z,100840.31
2022-09-03T14:13:02.236Z,100845.50
2022-09-03T14:16:00.715Z,100855.66
2022-09-03T14:18:39.887Z,100855.41
2022-09-03T14:21:22.689Z,100852.44
2022-09-03T14:24:01.723Z,100861.28
2022-09-03T14:26:39.155Z,100856.34
2022-09-03T14:29:14.316Z,100858.00
2022-09-03T14:31:44.788Z,100860.03
2022-09-03T14:34:31.290Z,100856.75
2022-09-03T14:37:09.773Z,100850.81
2022-09-03T14:40:03.264Z,100850.81
2022-09-03T14:42:40.905Z,100842.41
2022-09-03T14:45:08.217Z,100853.44
2022-09-03T14:48:06.351Z,100847.16
2022-09-03T14:50:41.124Z,100851.34
2022-09-03T14:53:29.890Z,100845.16
2022-09-03T14:56:38.617Z,100851.91
2022-09-03T14:59:40.486Z,100844.94
2022-09-03T15:02:31.805Z,100842.66
2022-09-03T15:05:12.388Z,100838.00
2022-09-03T15:07:45.535Z,100847.66
2022-09-03T15:10:23.507Z,100852.88
2022-09-03T15:13:09.673Z,100849.16
2022-09-03T15:15:54.432Z,100855.63
2022-09-03T15:18:30.716Z,100841.81
2022-09-03T15:21:13.424Z,100833.59
2022-09-03T15:23:54.851Z,100848.38
2022-09-03T15:26:43.028Z,100844.22
2022-09-03T15:29:22.864Z,100837.75
2022-09-03T15:32:06.546Z,100836.19
2022-09-03T15:34:57.933Z,100845.34
2022-09-03T15:37:42.537Z,100849.13
2022-09-03T15:40:27.851Z,100843.69
2022-09-03T15:43:23.811Z,100844.06
2022-09-03T15:45:59.414Z,100845.19
2022-09-03T15:48:48.701Z,100845.81
2022-09-03T15:51:47.174Z,100850.19
2022-09-03T15:54:31.841Z,100841.63
2022-09-03T15:57:17.736Z,100840.13
2022-09-03T16:00:11.620Z,100845.97
2022-09-03T16:03:00.929Z,100838.34
2022-09-03T16:05:45.654Z,100846.00
2022-09-03T16:08:46.811Z,100849.38
2022-09-03T16:11:27.100Z,100847.59
2022-09-03T16:13:59.495Z,100844.06
2022-09-03T16:16:52.444Z,100854.66
2022-09-03T16:19:24.181Z,100853.06
2022-09-03T16:22:19.408Z,100856.84
2022-09-03T16:25:03.714Z,100855.44
2022-09-03T16:28:11.427Z,100864.56
2022-09-03T16:30:50.520Z,100866.84
2022-09-03T16:33:23.696Z,100866.25
2022-09-03T16:36:07.345Z,100863.91
2022-09-03T16:39:12.843Z,100864.16
2022-09-03T16:42:18.659Z,100867.88
2022-09-03T16:44:54.650Z,100870.84
2022-09-03T16:48:09.929Z,100865.09
2022-09-03T16:50:51.963Z,100865.09
2022-09-03T16:53:44.238Z,100865.59
2022-09-03T16:56:25.900Z,100868.59
2022-09-03T16:58:53.643Z,100867.09
2022-09-03T17:01:30.269Z,100866.16
2022-09-03T17:04:45.253Z,100871.63
2022-09-03T17:07:36.986Z,100875.63
2022-09-03T17:10:45.856Z,100872.41
2022-09-03T17:13:24.933Z,100871.91
2022-09-03T17:16:31.969Z,100885.50
2022-09-03T17:19:47.559Z,100879.56
2022-09-03T17:22:39.835Z,100883.47
2022-09-03T17:25:24.535Z,100890.16
2022-09-03T17:28:24.779Z,100889.53
2022-09-03T17:31:06.446Z,100899.16
2022-09-03T17:33:36.403Z,100897.75
2022-09-03T17:36:22.326Z,100895.03
2022-09-03T17:38:59.559Z,100905.50
2022-09-03T17:41:34.745Z,100908.66
2022-09-03T17:44:18.624Z,100912.03
2022-09-03T17:47:06.456Z,100922.09
2022-09-03T17:49:50.506Z,100923.84
2022-09-03T17:52:23.738Z,100915.69
2022-09-03T17:55:00.129Z,100927.63
2022-09-03T17:57:52.051Z,100929.03
2022-09-03T18:00:59.056Z,100936.97
2022-09-03T18:03:39.611Z,100939.59
2022-09-03T18:06:34.593Z,100936.16
2022-09-03T18:09:22.249Z,100943.63
2022-09-03T18:12:26.112Z,100941.25
2022-09-03T18:15:16.617Z,100952.41
2022-09-03T18:18:04.164Z,100952.06
2022-09-03T18:21:22.951Z,100958.75
2022-09-03T18:24:38.903Z,100965.06
2022-09-03T18:27:45.614Z,100973.38
2022-09-03T18:30:33.714Z,100980.53
2022-09-03T18:33:22.143Z,100978.38
2022-09-03T18:36:10.186Z,100989.22
2022-09-03T18:39:00.369Z,101001.53
2022-09-03T18:42:23.876Z,101007.44
2022-09-03T18:45:49.074Z,101010.66
2022-09-03T18:48:53.446Z,101013.78
2022-09-03T18:52:32.266Z,101022.34
2022-09-03T18:55:20.123Z,101032.66
2022-09-03T18:58:20.663Z,101049.94
2022-09-03T19:01:26.521Z,101053.34
2022-09-03T19:04:31.662Z,101049.38
2022-09-03T19:07:31.256Z,101052.31
2022-09-03T19:10:29.960Z,101050.06
2022-09-03T19:13:30.834Z,101057.25
2022-09-03T19:16:30.591Z,101054.13
2022-09-03T19:19:25.986Z,101063.34
2022-09-03T19:22:35.140Z,101059.06
2022-09-03T19:25:29.990Z,101052.19
2022-09-03T19:28:33.547Z,101066.81
2022-09-03T19:31:31.061Z,101062.66
2022-09-03T19:34:49.244Z,101062.72
2022-09-03T19:37:50.245Z,101074.44
2022-09-03T19:40:52.724Z,101077.34
2022-09-03T19:44:02.271Z,101071.47
2022-09-03T19:47:08.042Z,101068.06
2022-09-03T19:50:13.776Z,101082.34
2022-09-03T19:53:14.412Z,101075.25
2022-09-03T19:56:07.864Z,101076.38
2022-09-03T19:59:00.576Z,101078.31
2022-09-03T20:01:53.768Z,101077.75
2022-09-03T20:04:48.986Z,101087.84
2022-09-03T20:07:38.676Z,101090.69
2022-09-03T20:10:24.946Z,101091.56
2022-09-03T20:13:19.377Z,101095.13
2022-09-03T20:16:21.968Z,101095.06
2022-09-03T20:19:28.349Z,101096.22
2022-09-03T20:22:16.404Z,101093.78
2022-09-03T20:24:59.682Z,101097.44
2022-09-03T20:28:03.804Z,101086.09
2022-09-03T20:30:37.130Z,101094.09
2022-09-03T20:33:24.801Z,101091.59
2022-09-03T20:36:09.664Z,101095.47
2022-09-03T20:38:53.322Z,101098.16
2022-09-03T20:41:49.084Z,101094.63
2022-09-03T20:44:58.430Z,101102.78
2022-09-03T20:47:36.478Z,101099.31
2022-09-03T20:51:01.447Z,101100.34
2022-09-03T20:53:43.348Z,101092.38
2022-09-03T20:56:54.141Z,101099.16
2022-09-03T21:00:04.792Z,101100.13
2022-09-03T21:02:58.772Z,101094.88
2022-09-03T21:05:50.193Z,101103.03
2022-09-03T21:08:46.247Z,101101.47
2022-09-03T21:11:29.579Z,101096.19
2022-09-03T21:14:17.481Z,101106.06
2022-09-03T21:17:00.154Z,101102.66
2022-09-03T21:20:16.906Z,101117.97
2022-09-03T21:23:13.121Z,101125.16
2022-09-03T21:25:52.276Z,101124.41
2022-09-03T21:28:40.419Z,101120.72
2022-09-03T21:31:39.031Z,101129.81
2022-09-03T21:34:19.286Z,101129.84
2022-09-03T21:36:48.707Z,101122.69
2022-09-03T21:39:34.136Z,101133.41
2022-09-03T21:42:17.730Z,101125.59
2022-09-03T21:45:00.327Z,101137.31
2022-09-03T21:47:31.738Z,101135.69
2022-09-03T21:50:16.503Z,101130.50
2022-09-03T21:53:02.955Z,101130.63
2022-09-03T21:55:35.752Z,101127.06
2022-09-03T21:58:19.681Z,101129.78
2022-09-03T22:00:51.959Z,101130.69
2022-09-03T22:03:20.236Z,101134.38
2022-09-03T22:06:25.155Z,101134.44
2022-09-03T22:09:24.544Z,101137.28
2022-09-03T22:12:06.826Z,101144.47
2022-09-03T22:14:46.386Z,101137.41
2022-09-03T22:17:28.434Z,101133.91
2022-09-03T22:19:56.246Z,101136.63
2022-09-03T22:22:57.546Z,101150.00
2022-09-03T22:25:45.162Z,101144.75
2022-09-03T22:28:42.192Z,101147.53
2022-09-03T22:31:33.263Z,101149.38
2022-09-03T22:34:24.920Z,101148.53
2022-09-03T22:37:06.725Z,101142.31
2022-09-03T22:39:39.629Z,101146.81
2022-09-03T22:42:15.202Z,101135.25
2022-09-03T22:44:51.180Z,101141.53
2022-09-03T22:47:29.966Z,101146.16
2022-09-03T22:50:25.130Z,101148.84
2022-09-03T22:53:34.255Z,101144.44
2022-09-03T22:56:09.535Z,101146.31
2022-09-03T22:58:48.520Z,101143.72
2022-09-03T23:01:34.810Z,101158.03
2022-09-03T23:04:22.795Z,101156.31
2022-09-03T23:07:19.956Z,101161.78
2022-09-03T23:10:24.389Z,101159.13
2022-09-03T23:13:09.540Z,101171.59
2022-09-03T23:15:41.801Z,101169.81
2022-09-03T23:18:15.433Z,101169.84
2022-09-03T23:20:55.356Z,101181.50
2022-09-03T23:23:53.962Z,101181.56
2022-09-03T23:26:51.478Z,101186.97
2022-09-03T23:29:40.419Z,101181.63
2022-09-03T23:32:09.418Z,101187.84
2022-09-03T23:34:40.555Z,101190.56
2022-09-03T23:37:34.232Z,101180.94
2022-09-03T23:40:19.276Z,101183.69
2022-09-03T23:43:14.562Z,101190.91
2022-09-03T23:46:07.121Z,101191.91
2022-09-03T23:48:55.730Z,101197.34
2022-09-03T23:51:53.658Z,101193.72
2022-09-03T23:54:45.204Z,101186.69
2022-09-03T23:57:38.482Z,101198.41
